sensor_id;sensor_type;location;lat;lon;timestamp;P1;durP1;ratioP1;P2;durP2;ratioP2
51214;SDS011;63849;47.546;19.254;2024-01-06T00:02:14;32.35;;;25.17;;
51214;SDS011;63849;47.546;19.254;2024-01-06T00:04:40;38.58;;;27.58;;
51214;SDS011;63849;47.546;19.254;2024-01-06T00:07:05;38.42;;;26.45;;
51214;SDS011;63849;47.546;19.254;2024-01-06T00:09:31;34.83;;;26.85;;
51214;SDS011;63849;47.546;19.254;2024-01-06T00:11:57;35.40;;;26.35;;
51214;SDS011;63849;47.546;19.254;2024-01-06T00:14:22;39.42;;;26.42;;
51214;SDS011;63849;47.546;19.254;2024-01-06T00:16:48;34.10;;;25.15;;
51214;SDS011;63849;47.546;19.254;2024-01-06T00:19:14;35.83;;;25.35;;
51214;SDS011;63849;47.546;19.254;2024-01-06T00:21:39;35.63;;;25.65;;
51214;SDS011;63849;47.546;19.254;2024-01-06T00:24:05;34.78;;;24.77;;
51214;SDS011;63849;47.546;19.254;2024-01-06T00:26:31;35.65;;;25.70;;
51214;SDS011;63849;47.546;19.254;2024-01-06T00:28:56;35.85;;;25.80;;
51214;SDS011;63849;47.546;19.254;2024-01-06T00:31:22;35.70;;;25.40;;
51214;SDS011;63849;47.546;19.254;2024-01-06T00:33:48;33.60;;;25.23;;
51214;SDS011;63849;47.546;19.254;2024-01-06T00:36:13;35.92;;;24.73;;
51214;SDS011;63849;47.546;19.254;2024-01-06T00:38:39;35.03;;;24.30;;
51214;SDS011;63849;47.546;19.254;2024-01-06T00:41:04;33.03;;;24.40;;
51214;SDS011;63849;47.546;19.254;2024-01-06T00:43:30;33.42;;;25.17;;
51214;SDS011;63849;47.546;19.254;2024-01-06T00:45:55;33.40;;;24.27;;
51214;SDS011;63849;47.546;19.254;2024-01-06T00:48:21;32.25;;;23.70;;
51214;SDS011;63849;47.546;19.254;2024-01-06T00:50:47;31.40;;;23.40;;
51214;SDS011;63849;47.546;19.254;2024-01-06T00:53:12;33.72;;;24.40;;
51214;SDS011;63849;47.546;19.254;2024-01-06T00:55:39;30.77;;;23.35;;
51214;SDS011;63849;47.546;19.254;2024-01-06T00:58:04;30.92;;;22.73;;
51214;SDS011;63849;47.546;19.254;2024-01-06T01:00:30;30.10;;;22.10;;
51214;SDS011;63849;47.546;19.254;2024-01-06T01:02:56;32.92;;;23.27;;
51214;SDS011;63849;47.546;19.254;2024-01-06T01:05:22;29.55;;;22.00;;
51214;SDS011;63849;47.546;19.254;2024-01-06T01:07:47;29.05;;;22.05;;
51214;SDS011;63849;47.546;19.254;2024-01-06T01:10:13;33.28;;;23.42;;
51214;SDS011;63849;47.546;19.254;2024-01-06T01:12:38;29.30;;;21.67;;
51214;SDS011;63849;47.546;19.254;2024-01-06T01:15:04;29.95;;;21.70;;
51214;SDS011;63849;47.546;19.254;2024-01-06T01:17:30;31.60;;;22.40;;
51214;SDS011;63849;47.546;19.254;2024-01-06T01:19:56;33.70;;;22.70;;
51214;SDS011;63849;47.546;19.254;2024-01-06T01:22:21;29.02;;;22.08;;
51214;SDS011;63849;47.546;19.254;2024-01-06T01:24:47;30.30;;;22.27;;
51214;SDS011;63849;47.546;19.254;2024-01-06T01:27:12;35.72;;;23.45;;
51214;SDS011;63849;47.546;19.254;2024-01-06T01:29:38;30.90;;;21.30;;
51214;SDS011;63849;47.546;19.254;2024-01-06T01:32:04;31.45;;;22.85;;
51214;SDS011;63849;47.546;19.254;2024-01-06T01:34:30;35.65;;;23.38;;
51214;SDS011;63849;47.546;19.254;2024-01-06T01:36:55;32.22;;;22.65;;
51214;SDS011;63849;47.546;19.254;2024-01-06T01:39:21;30.90;;;22.77;;
51214;SDS011;63849;47.546;19.254;2024-01-06T01:41:47;31.70;;;21.30;;
51214;SDS011;63849;47.546;19.254;2024-01-06T01:44:12;28.45;;;21.40;;
51214;SDS011;63849;47.546;19.254;2024-01-06T01:46:38;29.40;;;20.33;;
51214;SDS011;63849;47.546;19.254;2024-01-06T01:49:04;23.50;;;19.75;;
51214;SDS011;63849;47.546;19.254;2024-01-06T01:51:30;31.52;;;21.77;;
51214;SDS011;63849;47.546;19.254;2024-01-06T01:53:59;34.05;;;23.77;;
51214;SDS011;63849;47.546;19.254;2024-01-06T01:56:26;39.53;;;25.98;;
51214;SDS011;63849;47.546;19.254;2024-01-06T01:58:52;40.42;;;26.23;;
51214;SDS011;63849;47.546;19.254;2024-01-06T02:01:18;30.33;;;21.27;;
51214;SDS011;63849;47.546;19.254;2024-01-06T02:03:44;28.80;;;20.83;;
51214;SDS011;63849;47.546;19.254;2024-01-06T02:06:10;27.98;;;20.70;;
51214;SDS011;63849;47.546;19.254;2024-01-06T02:08:37;27.08;;;20.58;;
51214;SDS011;63849;47.546;19.254;2024-01-06T02:11:03;27.50;;;20.77;;
51214;SDS011;63849;47.546;19.254;2024-01-06T02:13:33;27.10;;;19.27;;
51214;SDS011;63849;47.546;19.254;2024-01-06T02:16:00;25.80;;;19.10;;
51214;SDS011;63849;47.546;19.254;2024-01-06T02:18:27;27.02;;;19.05;;
51214;SDS011;63849;47.546;19.254;2024-01-06T02:20:52;24.73;;;19.58;;
51214;SDS011;63849;47.546;19.254;2024-01-06T02:23:22;25.02;;;20.08;;
51214;SDS011;63849;47.546;19.254;2024-01-06T02:25:48;27.25;;;19.05;;
51214;SDS011;63849;47.546;19.254;2024-01-06T02:28:13;25.00;;;18.90;;
51214;SDS011;63849;47.546;19.254;2024-01-06T02:30:39;24.75;;;18.50;;
51214;SDS011;63849;47.546;19.254;2024-01-06T02:33:05;22.33;;;18.83;;
51214;SDS011;63849;47.546;19.254;2024-01-06T02:35:30;26.60;;;18.92;;
51214;SDS011;63849;47.546;19.254;2024-01-06T02:37:56;27.15;;;18.25;;
51214;SDS011;63849;47.546;19.254;2024-01-06T02:40:21;24.50;;;18.48;;
51214;SDS011;63849;47.546;19.254;2024-01-06T02:42:47;22.92;;;17.90;;
51214;SDS011;63849;47.546;19.254;2024-01-06T02:45:13;26.10;;;18.73;;
51214;SDS011;63849;47.546;19.254;2024-01-06T02:47:38;25.67;;;17.92;;
51214;SDS011;63849;47.546;19.254;2024-01-06T02:50:04;22.90;;;17.15;;
51214;SDS011;63849;47.546;19.254;2024-01-06T02:52:30;24.55;;;17.45;;
51214;SDS011;63849;47.546;19.254;2024-01-06T02:54:56;26.35;;;18.88;;
51214;SDS011;63849;47.546;19.254;2024-01-06T02:57:22;24.88;;;18.17;;
51214;SDS011;63849;47.546;19.254;2024-01-06T02:59:48;27.60;;;18.23;;
51214;SDS011;63849;47.546;19.254;2024-01-06T03:02:13;24.10;;;17.35;;
51214;SDS011;63849;47.546;19.254;2024-01-06T03:04:39;24.30;;;18.13;;
51214;SDS011;63849;47.546;19.254;2024-01-06T03:07:04;25.35;;;18.23;;
51214;SDS011;63849;47.546;19.254;2024-01-06T03:09:30;21.90;;;16.92;;
51214;SDS011;63849;47.546;19.254;2024-01-06T03:11:56;27.33;;;17.98;;
51214;SDS011;63849;47.546;19.254;2024-01-06T03:14:22;24.48;;;18.05;;
51214;SDS011;63849;47.546;19.254;2024-01-06T03:16:47;22.55;;;17.60;;
51214;SDS011;63849;47.546;19.254;2024-01-06T03:19:13;22.98;;;16.48;;
51214;SDS011;63849;47.546;19.254;2024-01-06T03:21:38;24.75;;;17.85;;
51214;SDS011;63849;47.546;19.254;2024-01-06T03:24:04;21.25;;;17.35;;
51214;SDS011;63849;47.546;19.254;2024-01-06T03:26:31;23.20;;;18.27;;
51214;SDS011;63849;47.546;19.254;2024-01-06T03:28:58;24.60;;;17.77;;
51214;SDS011;63849;47.546;19.254;2024-01-06T03:31:24;21.85;;;18.02;;
51214;SDS011;63849;47.546;19.254;2024-01-06T03:33:50;27.20;;;18.88;;
51214;SDS011;63849;47.546;19.254;2024-01-06T03:36:18;25.20;;;18.48;;
51214;SDS011;63849;47.546;19.254;2024-01-06T03:38:44;24.42;;;17.42;;
51214;SDS011;63849;47.546;19.254;2024-01-06T03:41:10;25.83;;;18.58;;
51214;SDS011;63849;47.546;19.254;2024-01-06T03:43:35;23.25;;;18.25;;
51214;SDS011;63849;47.546;19.254;2024-01-06T03:46:01;25.73;;;18.08;;
51214;SDS011;63849;47.546;19.254;2024-01-06T03:48:26;21.17;;;17.63;;
51214;SDS011;63849;47.546;19.254;2024-01-06T03:50:52;22.58;;;16.70;;
51214;SDS011;63849;47.546;19.254;2024-01-06T03:53:18;22.92;;;16.70;;
51214;SDS011;63849;47.546;19.254;2024-01-06T03:55:44;22.42;;;15.43;;
51214;SDS011;63849;47.546;19.254;2024-01-06T03:58:10;23.60;;;17.20;;
51214;SDS011;63849;47.546;19.254;2024-01-06T04:00:35;20.83;;;16.20;;
51214;SDS011;63849;47.546;19.254;2024-01-06T04:03:01;21.75;;;16.48;;
51214;SDS011;63849;47.546;19.254;2024-01-06T04:05:27;19.48;;;16.33;;
51214;SDS011;63849;47.546;19.254;2024-01-06T04:07:53;25.48;;;16.60;;
51214;SDS011;63849;47.546;19.254;2024-01-06T04:10:18;21.60;;;16.30;;
51214;SDS011;63849;47.546;19.254;2024-01-06T04:12:44;20.52;;;16.00;;
51214;SDS011;63849;47.546;19.254;2024-01-06T04:15:09;23.25;;;16.90;;
51214;SDS011;63849;47.546;19.254;2024-01-06T04:17:35;28.77;;;19.23;;
51214;SDS011;63849;47.546;19.254;2024-01-06T04:20:01;29.75;;;19.42;;
51214;SDS011;63849;47.546;19.254;2024-01-06T04:22:26;21.38;;;15.85;;
51214;SDS011;63849;47.546;19.254;2024-01-06T04:24:52;21.08;;;15.68;;
51214;SDS011;63849;47.546;19.254;2024-01-06T04:27:17;21.80;;;15.52;;
51214;SDS011;63849;47.546;19.254;2024-01-06T04:29:43;22.08;;;15.68;;
51214;SDS011;63849;47.546;19.254;2024-01-06T04:32:08;18.20;;;14.77;;
51214;SDS011;63849;47.546;19.254;2024-01-06T04:34:34;18.92;;;15.27;;
51214;SDS011;63849;47.546;19.254;2024-01-06T04:37:00;20.60;;;15.68;;
51214;SDS011;63849;47.546;19.254;2024-01-06T04:39:25;19.30;;;15.75;;
51214;SDS011;63849;47.546;19.254;2024-01-06T04:41:51;23.67;;;16.95;;
51214;SDS011;63849;47.546;19.254;2024-01-06T04:44:20;22.30;;;16.15;;
51214;SDS011;63849;47.546;19.254;2024-01-06T04:46:46;20.95;;;15.40;;
51214;SDS011;63849;47.546;19.254;2024-01-06T04:49:12;20.10;;;14.98;;
51214;SDS011;63849;47.546;19.254;2024-01-06T04:51:37;22.17;;;16.23;;
51214;SDS011;63849;47.546;19.254;2024-01-06T04:54:03;23.52;;;16.60;;
51214;SDS011;63849;47.546;19.254;2024-01-06T04:56:29;21.30;;;16.23;;
51214;SDS011;63849;47.546;19.254;2024-01-06T04:58:54;24.98;;;15.77;;
51214;SDS011;63849;47.546;19.254;2024-01-06T05:01:21;21.70;;;16.23;;
51214;SDS011;63849;47.546;19.254;2024-01-06T05:03:47;22.80;;;15.45;;
51214;SDS011;63849;47.546;19.254;2024-01-06T05:06:12;20.50;;;16.23;;
51214;SDS011;63849;47.546;19.254;2024-01-06T05:08:38;25.52;;;16.35;;
51214;SDS011;63849;47.546;19.254;2024-01-06T05:11:09;20.73;;;15.95;;
51214;SDS011;63849;47.546;19.254;2024-01-06T05:13:36;19.65;;;15.52;;
51214;SDS011;63849;47.546;19.254;2024-01-06T05:16:01;21.13;;;16.10;;
51214;SDS011;63849;47.546;19.254;2024-01-06T05:18:27;22.55;;;16.48;;
51214;SDS011;63849;47.546;19.254;2024-01-06T05:20:53;22.60;;;17.38;;
51214;SDS011;63849;47.546;19.254;2024-01-06T05:23:19;24.25;;;17.50;;
51214;SDS011;63849;47.546;19.254;2024-01-06T05:25:45;24.25;;;18.02;;
51214;SDS011;63849;47.546;19.254;2024-01-06T05:28:10;23.02;;;16.83;;
51214;SDS011;63849;47.546;19.254;2024-01-06T05:30:36;23.73;;;17.38;;
51214;SDS011;63849;47.546;19.254;2024-01-06T05:33:01;21.58;;;15.77;;
51214;SDS011;63849;47.546;19.254;2024-01-06T05:35:28;21.45;;;14.57;;
51214;SDS011;63849;47.546;19.254;2024-01-06T05:37:54;20.58;;;15.82;;
51214;SDS011;63849;47.546;19.254;2024-01-06T05:40:20;19.80;;;15.93;;
51214;SDS011;63849;47.546;19.254;2024-01-06T05:42:46;23.83;;;15.35;;
51214;SDS011;63849;47.546;19.254;2024-01-06T05:45:11;22.25;;;15.20;;
51214;SDS011;63849;47.546;19.254;2024-01-06T05:47:40;22.67;;;15.82;;
51214;SDS011;63849;47.546;19.254;2024-01-06T05:50:06;20.02;;;15.82;;
51214;SDS011;63849;47.546;19.254;2024-01-06T05:52:35;20.40;;;15.02;;
51214;SDS011;63849;47.546;19.254;2024-01-06T05:55:00;21.20;;;16.40;;
51214;SDS011;63849;47.546;19.254;2024-01-06T05:57:26;19.23;;;16.10;;
51214;SDS011;63849;47.546;19.254;2024-01-06T05:59:52;20.58;;;15.73;;
51214;SDS011;63849;47.546;19.254;2024-01-06T06:02:17;20.10;;;15.23;;
51214;SDS011;63849;47.546;19.254;2024-01-06T06:04:43;20.88;;;15.25;;
51214;SDS011;63849;47.546;19.254;2024-01-06T06:07:08;20.52;;;14.30;;
51214;SDS011;63849;47.546;19.254;2024-01-06T06:09:34;22.77;;;15.45;;
51214;SDS011;63849;47.546;19.254;2024-01-06T06:12:00;21.73;;;15.90;;
51214;SDS011;63849;47.546;19.254;2024-01-06T06:14:25;20.95;;;14.63;;
51214;SDS011;63849;47.546;19.254;2024-01-06T06:16:51;20.02;;;14.88;;
51214;SDS011;63849;47.546;19.254;2024-01-06T06:19:17;19.05;;;13.85;;
51214;SDS011;63849;47.546;19.254;2024-01-06T06:21:43;20.30;;;14.70;;
51214;SDS011;63849;47.546;19.254;2024-01-06T06:24:09;21.08;;;14.80;;
51214;SDS011;63849;47.546;19.254;2024-01-06T06:26:35;20.90;;;15.68;;
51214;SDS011;63849;47.546;19.254;2024-01-06T06:29:01;19.98;;;15.20;;
51214;SDS011;63849;47.546;19.254;2024-01-06T06:31:27;21.20;;;15.52;;
51214;SDS011;63849;47.546;19.254;2024-01-06T06:33:53;18.25;;;14.38;;
51214;SDS011;63849;47.546;19.254;2024-01-06T06:36:18;21.10;;;14.38;;
51214;SDS011;63849;47.546;19.254;2024-01-06T06:38:44;19.45;;;15.10;;
51214;SDS011;63849;47.546;19.254;2024-01-06T06:41:10;22.15;;;16.63;;
51214;SDS011;63849;47.546;19.254;2024-01-06T06:43:36;20.95;;;14.73;;
51214;SDS011;63849;47.546;19.254;2024-01-06T06:46:02;21.02;;;15.75;;
51214;SDS011;63849;47.546;19.254;2024-01-06T06:48:28;18.15;;;14.52;;
51214;SDS011;63849;47.546;19.254;2024-01-06T06:50:53;20.00;;;15.35;;
51214;SDS011;63849;47.546;19.254;2024-01-06T06:53:20;20.23;;;14.55;;
51214;SDS011;63849;47.546;19.254;2024-01-06T06:55:46;20.40;;;15.60;;
51214;SDS011;63849;47.546;19.254;2024-01-06T06:58:12;20.92;;;15.10;;
51214;SDS011;63849;47.546;19.254;2024-01-06T07:00:38;22.58;;;15.82;;
51214;SDS011;63849;47.546;19.254;2024-01-06T07:03:04;25.80;;;16.52;;
51214;SDS011;63849;47.546;19.254;2024-01-06T07:05:30;19.98;;;15.15;;
51214;SDS011;63849;47.546;19.254;2024-01-06T07:07:55;19.92;;;15.48;;
51214;SDS011;63849;47.546;19.254;2024-01-06T07:10:21;21.42;;;16.23;;
51214;SDS011;63849;47.546;19.254;2024-01-06T07:12:47;22.80;;;15.73;;
51214;SDS011;63849;47.546;19.254;2024-01-06T07:15:13;23.23;;;15.98;;
51214;SDS011;63849;47.546;19.254;2024-01-06T07:17:38;19.92;;;15.25;;
51214;SDS011;63849;47.546;19.254;2024-01-06T07:20:05;18.23;;;13.45;;
51214;SDS011;63849;47.546;19.254;2024-01-06T07:22:32;19.73;;;13.82;;
51214;SDS011;63849;47.546;19.254;2024-01-06T07:24:59;20.23;;;14.85;;
51214;SDS011;63849;47.546;19.254;2024-01-06T07:27:26;21.30;;;14.77;;
51214;SDS011;63849;47.546;19.254;2024-01-06T07:29:51;18.10;;;14.40;;
51214;SDS011;63849;47.546;19.254;2024-01-06T07:32:17;19.15;;;13.35;;
51214;SDS011;63849;47.546;19.254;2024-01-06T07:34:43;18.15;;;14.38;;
51214;SDS011;63849;47.546;19.254;2024-01-06T07:37:08;22.40;;;14.95;;
51214;SDS011;63849;47.546;19.254;2024-01-06T07:39:34;17.95;;;14.35;;
51214;SDS011;63849;47.546;19.254;2024-01-06T07:42:00;20.45;;;14.82;;
51214;SDS011;63849;47.546;19.254;2024-01-06T07:44:25;18.98;;;13.85;;
51214;SDS011;63849;47.546;19.254;2024-01-06T07:46:52;17.40;;;14.15;;
51214;SDS011;63849;47.546;19.254;2024-01-06T07:49:17;20.20;;;13.73;;
51214;SDS011;63849;47.546;19.254;2024-01-06T07:51:43;17.85;;;13.63;;
51214;SDS011;63849;47.546;19.254;2024-01-06T07:54:09;17.73;;;13.23;;
51214;SDS011;63849;47.546;19.254;2024-01-06T07:56:36;16.65;;;13.02;;
51214;SDS011;63849;47.546;19.254;2024-01-06T07:59:03;19.60;;;13.10;;
51214;SDS011;63849;47.546;19.254;2024-01-06T08:01:29;16.75;;;13.93;;
51214;SDS011;63849;47.546;19.254;2024-01-06T08:03:55;17.40;;;12.88;;
51214;SDS011;63849;47.546;19.254;2024-01-06T08:06:21;19.90;;;13.05;;
51214;SDS011;63849;47.546;19.254;2024-01-06T08:08:46;16.80;;;12.32;;
51214;SDS011;63849;47.546;19.254;2024-01-06T08:11:12;18.23;;;12.57;;
51214;SDS011;63849;47.546;19.254;2024-01-06T08:13:38;18.52;;;13.20;;
51214;SDS011;63849;47.546;19.254;2024-01-06T08:16:04;18.15;;;13.52;;
51214;SDS011;63849;47.546;19.254;2024-01-06T08:18:30;17.73;;;12.82;;
51214;SDS011;63849;47.546;19.254;2024-01-06T08:20:56;17.50;;;13.55;;
51214;SDS011;63849;47.546;19.254;2024-01-06T08:23:21;21.02;;;16.85;;
51214;SDS011;63849;47.546;19.254;2024-01-06T08:25:48;21.60;;;15.88;;
51214;SDS011;63849;47.546;19.254;2024-01-06T08:28:13;20.70;;;16.88;;
51214;SDS011;63849;47.546;19.254;2024-01-06T08:30:43;19.30;;;14.80;;
51214;SDS011;63849;47.546;19.254;2024-01-06T08:33:09;18.40;;;14.32;;
51214;SDS011;63849;47.546;19.254;2024-01-06T08:35:35;20.65;;;14.95;;
51214;SDS011;63849;47.546;19.254;2024-01-06T08:38:05;22.65;;;13.73;;
51214;SDS011;63849;47.546;19.254;2024-01-06T08:40:32;19.05;;;13.73;;
51214;SDS011;63849;47.546;19.254;2024-01-06T08:42:58;19.10;;;13.38;;
51214;SDS011;63849;47.546;19.254;2024-01-06T08:45:23;19.23;;;13.93;;
51214;SDS011;63849;47.546;19.254;2024-01-06T08:47:49;18.92;;;14.60;;
51214;SDS011;63849;47.546;19.254;2024-01-06T08:50:15;18.48;;;13.77;;
51214;SDS011;63849;47.546;19.254;2024-01-06T08:52:40;19.05;;;13.70;;
51214;SDS011;63849;47.546;19.254;2024-01-06T08:55:06;18.52;;;14.85;;
51214;SDS011;63849;47.546;19.254;2024-01-06T08:57:32;19.35;;;14.23;;
51214;SDS011;63849;47.546;19.254;2024-01-06T08:59:57;19.50;;;14.18;;
51214;SDS011;63849;47.546;19.254;2024-01-06T09:02:23;17.40;;;13.75;;
51214;SDS011;63849;47.546;19.254;2024-01-06T09:04:49;16.25;;;13.00;;
51214;SDS011;63849;47.546;19.254;2024-01-06T09:07:15;17.02;;;14.02;;
51214;SDS011;63849;47.546;19.254;2024-01-06T09:09:42;16.73;;;13.35;;
51214;SDS011;63849;47.546;19.254;2024-01-06T09:12:08;20.08;;;13.88;;
51214;SDS011;63849;47.546;19.254;2024-01-06T09:14:34;20.52;;;15.40;;
51214;SDS011;63849;47.546;19.254;2024-01-06T09:17:00;20.67;;;14.95;;
51214;SDS011;63849;47.546;19.254;2024-01-06T09:19:26;23.63;;;17.27;;
51214;SDS011;63849;47.546;19.254;2024-01-06T09:21:53;21.00;;;15.45;;
51214;SDS011;63849;47.546;19.254;2024-01-06T09:24:19;22.40;;;16.98;;
51214;SDS011;63849;47.546;19.254;2024-01-06T09:26:45;26.48;;;16.48;;
51214;SDS011;63849;47.546;19.254;2024-01-06T09:29:11;22.25;;;16.73;;
51214;SDS011;63849;47.546;19.254;2024-01-06T09:31:37;22.15;;;16.75;;
51214;SDS011;63849;47.546;19.254;2024-01-06T09:34:03;22.17;;;16.42;;
51214;SDS011;63849;47.546;19.254;2024-01-06T09:36:30;20.92;;;15.63;;
51214;SDS011;63849;47.546;19.254;2024-01-06T09:38:56;21.17;;;15.98;;
51214;SDS011;63849;47.546;19.254;2024-01-06T09:41:22;24.40;;;16.40;;
51214;SDS011;63849;47.546;19.254;2024-01-06T09:43:48;18.67;;;15.30;;
51214;SDS011;63849;47.546;19.254;2024-01-06T09:48:52;22.17;;;16.30;;
51214;SDS011;63849;47.546;19.254;2024-01-06T09:51:19;22.67;;;16.73;;
51214;SDS011;63849;47.546;19.254;2024-01-06T09:53:49;18.40;;;16.27;;
51214;SDS011;63849;47.546;19.254;2024-01-06T09:56:21;26.73;;;18.65;;
51214;SDS011;63849;47.546;19.254;2024-01-06T09:58:50;22.35;;;16.80;;
51214;SDS011;63849;47.546;19.254;2024-01-06T10:01:17;27.38;;;23.70;;
51214;SDS011;63849;47.546;19.254;2024-01-06T10:03:43;28.90;;;25.77;;
51214;SDS011;63849;47.546;19.254;2024-01-06T10:06:10;25.25;;;18.75;;
51214;SDS011;63849;47.546;19.254;2024-01-06T10:08:36;24.85;;;17.40;;
51214;SDS011;63849;47.546;19.254;2024-01-06T10:11:05;20.98;;;16.95;;
51214;SDS011;63849;47.546;19.254;2024-01-06T10:13:32;29.50;;;24.52;;
51214;SDS011;63849;47.546;19.254;2024-01-06T10:15:58;49.70;;;42.70;;
51214;SDS011;63849;47.546;19.254;2024-01-06T10:18:24;39.03;;;31.75;;
51214;SDS011;63849;47.546;19.254;2024-01-06T10:20:52;31.50;;;25.73;;
51214;SDS011;63849;47.546;19.254;2024-01-06T10:23:18;43.78;;;34.08;;
51214;SDS011;63849;47.546;19.254;2024-01-06T10:25:44;25.90;;;19.92;;
51214;SDS011;63849;47.546;19.254;2024-01-06T10:28:12;17.95;;;16.05;;
51214;SDS011;63849;47.546;19.254;2024-01-06T10:30:41;21.02;;;16.52;;
51214;SDS011;63849;47.546;19.254;2024-01-06T10:33:09;19.42;;;15.93;;
51214;SDS011;63849;47.546;19.254;2024-01-06T10:35:35;18.58;;;15.98;;
51214;SDS011;63849;47.546;19.254;2024-01-06T10:38:05;20.30;;;16.00;;
51214;SDS011;63849;47.546;19.254;2024-01-06T10:40:32;20.33;;;16.02;;
51214;SDS011;63849;47.546;19.254;2024-01-06T10:42:58;23.73;;;16.52;;
51214;SDS011;63849;47.546;19.254;2024-01-06T10:45:25;18.90;;;16.25;;
51214;SDS011;63849;47.546;19.254;2024-01-06T10:47:54;19.30;;;15.57;;
51214;SDS011;63849;47.546;19.254;2024-01-06T10:50:20;22.52;;;17.13;;
51214;SDS011;63849;47.546;19.254;2024-01-06T10:52:47;19.98;;;16.88;;
51214;SDS011;63849;47.546;19.254;2024-01-06T10:55:14;20.35;;;16.13;;
51214;SDS011;63849;47.546;19.254;2024-01-06T10:57:45;20.17;;;16.73;;
51214;SDS011;63849;47.546;19.254;2024-01-06T11:00:12;18.90;;;15.88;;
51214;SDS011;63849;47.546;19.254;2024-01-06T11:02:38;19.95;;;17.00;;
51214;SDS011;63849;47.546;19.254;2024-01-06T11:05:05;21.15;;;16.30;;
51214;SDS011;63849;47.546;19.254;2024-01-06T11:07:35;19.33;;;16.52;;
51214;SDS011;63849;47.546;19.254;2024-01-06T11:10:04;21.90;;;17.92;;
51214;SDS011;63849;47.546;19.254;2024-01-06T11:12:33;20.30;;;16.75;;
51214;SDS011;63849;47.546;19.254;2024-01-06T11:14:59;22.65;;;17.48;;
51214;SDS011;63849;47.546;19.254;2024-01-06T11:20:22;23.45;;;19.52;;
51214;SDS011;63849;47.546;19.254;2024-01-06T11:22:48;25.48;;;20.35;;
51214;SDS011;63849;47.546;19.254;2024-01-06T11:25:15;29.70;;;20.65;;
51214;SDS011;63849;47.546;19.254;2024-01-06T11:27:46;31.60;;;22.25;;
51214;SDS011;63849;47.546;19.254;2024-01-06T11:30:20;24.85;;;19.15;;
51214;SDS011;63849;47.546;19.254;2024-01-06T11:32:55;26.63;;;20.27;;
51214;SDS011;63849;47.546;19.254;2024-01-06T11:35:24;29.65;;;22.23;;
51214;SDS011;63849;47.546;19.254;2024-01-06T11:37:55;31.30;;;24.40;;
51214;SDS011;63849;47.546;19.254;2024-01-06T11:40:23;32.72;;;24.58;;
51214;SDS011;63849;47.546;19.254;2024-01-06T11:42:57;30.85;;;24.02;;
51214;SDS011;63849;47.546;19.254;2024-01-06T11:45:25;29.20;;;23.52;;
51214;SDS011;63849;47.546;19.254;2024-01-06T11:47:59;31.52;;;25.13;;
51214;SDS011;63849;47.546;19.254;2024-01-06T11:50:33;36.10;;;26.58;;
51214;SDS011;63849;47.546;19.254;2024-01-06T11:53:01;30.52;;;24.38;;
51214;SDS011;63849;47.546;19.254;2024-01-06T11:55:27;29.50;;;23.85;;
51214;SDS011;63849;47.546;19.254;2024-01-06T11:57:54;28.77;;;23.75;;
51214;SDS011;63849;47.546;19.254;2024-01-06T12:00:21;29.63;;;26.10;;
51214;SDS011;63849;47.546;19.254;2024-01-06T12:02:47;31.63;;;24.67;;
51214;SDS011;63849;47.546;19.254;2024-01-06T12:05:13;31.83;;;25.33;;
51214;SDS011;63849;47.546;19.254;2024-01-06T12:07:43;28.40;;;23.58;;
51214;SDS011;63849;47.546;19.254;2024-01-06T12:10:25;26.23;;;22.63;;
51214;SDS011;63849;47.546;19.254;2024-01-06T12:13:00;30.45;;;25.08;;
51214;SDS011;63849;47.546;19.254;2024-01-06T12:15:28;29.63;;;25.35;;
51214;SDS011;63849;47.546;19.254;2024-01-06T12:17:55;28.05;;;23.45;;
51214;SDS011;63849;47.546;19.254;2024-01-06T12:20:21;28.48;;;22.63;;
51214;SDS011;63849;47.546;19.254;2024-01-06T12:22:48;25.60;;;22.30;;
51214;SDS011;63849;47.546;19.254;2024-01-06T12:25:16;25.00;;;21.52;;
51214;SDS011;63849;47.546;19.254;2024-01-06T12:27:42;23.67;;;21.10;;
51214;SDS011;63849;47.546;19.254;2024-01-06T12:30:12;25.35;;;21.20;;
51214;SDS011;63849;47.546;19.254;2024-01-06T12:32:44;25.98;;;22.55;;
51214;SDS011;63849;47.546;19.254;2024-01-06T12:35:11;23.48;;;20.98;;
51214;SDS011;63849;47.546;19.254;2024-01-06T12:37:37;28.27;;;22.67;;
51214;SDS011;63849;47.546;19.254;2024-01-06T12:40:04;26.05;;;23.25;;
51214;SDS011;63849;47.546;19.254;2024-01-06T12:42:33;26.33;;;22.85;;
51214;SDS011;63849;47.546;19.254;2024-01-06T12:44:58;28.27;;;22.38;;
51214;SDS011;63849;47.546;19.254;2024-01-06T12:47:24;27.98;;;21.98;;
51214;SDS011;63849;47.546;19.254;2024-01-06T12:49:50;26.65;;;21.63;;
51214;SDS011;63849;47.546;19.254;2024-01-06T12:52:15;27.10;;;22.13;;
51214;SDS011;63849;47.546;19.254;2024-01-06T12:54:41;25.70;;;21.38;;
51214;SDS011;63849;47.546;19.254;2024-01-06T12:57:08;28.17;;;23.20;;
51214;SDS011;63849;47.546;19.254;2024-01-06T12:59:34;30.17;;;24.17;;
51214;SDS011;63849;47.546;19.254;2024-01-06T13:02:00;29.15;;;25.75;;
51214;SDS011;63849;47.546;19.254;2024-01-06T13:04:25;31.77;;;26.42;;
51214;SDS011;63849;47.546;19.254;2024-01-06T13:06:52;32.53;;;26.60;;
51214;SDS011;63849;47.546;19.254;2024-01-06T13:09:17;31.33;;;25.73;;
51214;SDS011;63849;47.546;19.254;2024-01-06T13:11:43;34.58;;;27.75;;
51214;SDS011;63849;47.546;19.254;2024-01-06T13:14:11;32.50;;;26.50;;
51214;SDS011;63849;47.546;19.254;2024-01-06T13:16:37;30.10;;;25.25;;
51214;SDS011;63849;47.546;19.254;2024-01-06T13:19:03;30.85;;;24.70;;
51214;SDS011;63849;47.546;19.254;2024-01-06T13:21:29;34.00;;;27.77;;
51214;SDS011;63849;47.546;19.254;2024-01-06T13:23:55;32.15;;;26.88;;
51214;SDS011;63849;47.546;19.254;2024-01-06T13:26:26;35.08;;;26.33;;
51214;SDS011;63849;47.546;19.254;2024-01-06T13:28:53;41.55;;;30.50;;
51214;SDS011;63849;47.546;19.254;2024-01-06T13:31:19;36.20;;;28.08;;
51214;SDS011;63849;47.546;19.254;2024-01-06T13:33:45;39.90;;;28.33;;
51214;SDS011;63849;47.546;19.254;2024-01-06T13:36:11;37.80;;;26.33;;
51214;SDS011;63849;47.546;19.254;2024-01-06T13:38:37;33.53;;;25.92;;
51214;SDS011;63849;47.546;19.254;2024-01-06T13:41:03;29.65;;;24.15;;
51214;SDS011;63849;47.546;19.254;2024-01-06T13:43:29;28.52;;;24.50;;
51214;SDS011;63849;47.546;19.254;2024-01-06T13:45:56;32.42;;;23.20;;
51214;SDS011;63849;47.546;19.254;2024-01-06T13:48:21;26.30;;;23.45;;
51214;SDS011;63849;47.546;19.254;2024-01-06T13:50:47;29.70;;;23.15;;
51214;SDS011;63849;47.546;19.254;2024-01-06T13:53:13;26.17;;;21.73;;
51214;SDS011;63849;47.546;19.254;2024-01-06T13:55:39;25.83;;;21.70;;
51214;SDS011;63849;47.546;19.254;2024-01-06T13:58:05;26.48;;;23.20;;
51214;SDS011;63849;47.546;19.254;2024-01-06T14:00:34;28.38;;;23.13;;
51214;SDS011;63849;47.546;19.254;2024-01-06T14:03:00;29.33;;;23.48;;
51214;SDS011;63849;47.546;19.254;2024-01-06T14:05:26;29.55;;;22.85;;
51214;SDS011;63849;47.546;19.254;2024-01-06T14:07:52;28.15;;;23.92;;
51214;SDS011;63849;47.546;19.254;2024-01-06T14:10:17;29.50;;;24.45;;